Observation data for Dora on 05/25/2019      Previous  Date  Next       Current Mesonet Observations  Soil Data  Daily Summary Page  Observations in Plain Language
KDR1 250500Z 18016KT 21/15 A2999 RMK A01 T02080153  RH  074%=      5-min Rain = 0
KDR1 250505Z 18016KT 21/15 A30 RMK A01 T02060153  RH  075%=      5-min Rain = 0
KDR1 250510Z 18014KT 21/15 A30 RMK A01 T02050150  RH  074%=      5-min Rain = 0
KDR1 250515Z 18016G23KT 21/15 A30 RMK A01 T02050149  RH  074%=      5-min Rain = 0
KDR1 250520Z 18016KT 20/15 A30 RMK A01 T02040148  RH  073%=      5-min Rain = 0
KDR1 250525Z 18013KT 20/15 A30 RMK A01 T02020147  RH  074%=      5-min Rain = 0
KDR1 250530Z 18013KT 20/15 A30 RMK A01 T02000148  RH  075%=      5-min Rain = 0
KDR1 250535Z 18014G19KT 20/15 A30 RMK A01 T01990147  RH  075%=      5-min Rain = 0
KDR1 250540Z 19014KT 20/15 A30 RMK A01 T01990147  RH  075%=      5-min Rain = 0
KDR1 250545Z 19013KT 20/15 A30 RMK A01 T01970145  RH  075%=      5-min Rain = 0
KDR1 250550Z 20013KT 20/14 A30 RMK A01 T01950144  RH  075%=      5-min Rain = 0
KDR1 250555Z 19016KT 20/15 A30 RMK A01 T01970145  RH  075%=      5-min Rain = 0
KDR1 250600Z 19016KT 20/15 A30 RMK A01 T01970146  RH  076%=      5-min Rain = 0
KDR1 250605Z 19015KT 20/15 A30 RMK A01 T01950147  RH  077%=      5-min Rain = 0
KDR1 250610Z 19015KT 19/15 A30 RMK A01 T01940147  RH  078%=      5-min Rain = 0
KDR1 250615Z 19013KT 19/15 A30 RMK A01 T01920147  RH  079%=      5-min Rain = 0
KDR1 250620Z 19013G18KT 19/15 A30 RMK A01 T01900147  RH  080%=      5-min Rain = 0
KDR1 250625Z 19014KT 19/15 A30 RMK A01 T01900148  RH  080%=      5-min Rain = 0
KDR1 250630Z 19014KT 19/15 A2999 RMK A01 T01900149  RH  081%=      5-min Rain = 0
KDR1 250635Z 19013KT 19/15 A2999 RMK A01 T01890148  RH  081%=      5-min Rain = 0
KDR1 250640Z 19012KT 19/15 A2999 RMK A01 T01870148  RH  082%=      5-min Rain = 0
KDR1 250645Z 19011KT 19/15 A2999 RMK A01 T01850147  RH  082%=      5-min Rain = 0
KDR1 250650Z 19009KT 18/15 A2999 RMK A01 T01830146  RH  083%=      5-min Rain = 0
KDR1 250655Z 19010KT 18/15 A2999 RMK A01 T01800145  RH  084%=      5-min Rain = 0
KDR1 250700Z 19010KT 18/14 A2999 RMK A01 T01780144  RH  084%=      5-min Rain = 0
KDR1 250705Z 19010KT 18/14 A2999 RMK A01 T01760144  RH  085%=      5-min Rain = 0
KDR1 250710Z 18009KT 18/14 A2999 RMK A01 T01750143  RH  085%=      5-min Rain = 0
KDR1 250715Z 18009KT 17/14 A2999 RMK A01 T01730142  RH  086%=      5-min Rain = 0
KDR1 250720Z 17009KT 17/14 A2999 RMK A01 T01690141  RH  087%=      5-min Rain = 0
KDR1 250725Z 16010KT 17/14 A2999 RMK A01 T01680142  RH  088%=      5-min Rain = 0
KDR1 250730Z 15010KT 17/14 A2999 RMK A01 T01690144  RH  089%=      5-min Rain = 0
KDR1 250735Z 15010KT 17/15 A2999 RMK A01 T01700146  RH  090%=      5-min Rain = 0
KDR1 250740Z 15010KT 17/15 A2999 RMK A01 T01690145  RH  090%=      5-min Rain = 0
KDR1 250745Z 15011KT 17/15 A2999 RMK A01 T01690145  RH  090%=      5-min Rain = 0
KDR1 250750Z 15011KT 17/15 A2998 RMK A01 T01710147  RH  090%=      5-min Rain = 0
KDR1 250755Z 15012KT 17/15 A2998 RMK A01 T01710148  RH  090%=      5-min Rain = 0
KDR1 250800Z 15012KT 17/15 A2998 RMK A01 T01720149  RH  090%=      5-min Rain = 0
KDR1 250805Z 15012KT 17/15 A2998 RMK A01 T01740150  RH  090%=      5-min Rain = 0
KDR1 250810Z 15011KT 17/15 A2998 RMK A01 T01740150  RH  090%=      5-min Rain = 0
KDR1 250815Z 15011KT 17/15 A2998 RMK A01 T01730150  RH  090%=      5-min Rain = 0
KDR1 250820Z 15011KT 17/15 A2998 RMK A01 T01720150  RH  091%=      5-min Rain = 0
KDR1 250825Z 15011KT 17/15 A2998 RMK A01 T01710149  RH  091%=      5-min Rain = 0
KDR1 250830Z 15010KT 17/15 A2998 RMK A01 T01700149  RH  091%=      5-min Rain = 0
KDR1 250835Z 15010KT 17/15 A2998 RMK A01 T01690148  RH  092%=      5-min Rain = 0
KDR1 250840Z 14011KT 17/15 A2998 RMK A01 T01690149  RH  092%=      5-min Rain = 0
KDR1 250845Z 14011KT 17/15 A2998 RMK A01 T01670148  RH  092%=      5-min Rain = 0
KDR1 250850Z 15011KT 17/15 A2998 RMK A01 T01670149  RH  093%=      5-min Rain = 0
KDR1 250855Z 15011KT 17/15 A2997 RMK A01 T01680150  RH  093%=      5-min Rain = 0
KDR1 250900Z 15011KT 17/15 A2997 RMK A01 T01690151  RH  093%=      5-min Rain = 0
KDR1 250905Z 14011KT 17/15 A2997 RMK A01 T01680151  RH  093%=      5-min Rain = 0
KDR1 250910Z 14011KT 17/15 A2997 RMK A01 T01670150  RH  094%=      5-min Rain = 0
KDR1 250915Z 14010KT 17/15 A2997 RMK A01 T01660150  RH  094%=      5-min Rain = 0
KDR1 250920Z 14011KT 17/15 A2997 RMK A01 T01660150  RH  095%=      5-min Rain = 0
KDR1 250925Z 14011KT 17/15 A2997 RMK A01 T01670151  RH  095%=      5-min Rain = 0
KDR1 250930Z 15011KT 17/15 A2997 RMK A01 T01680153  RH  095%=      5-min Rain = 0
KDR1 250935Z 15012KT 17/16 A2997 RMK A01 T01700156  RH  095%=      5-min Rain = 0
KDR1 250940Z 15012KT 17/16 A2997 RMK A01 T01720157  RH  095%=      5-min Rain = 0
KDR1 250945Z 14011KT 17/16 A2997 RMK A01 T01740158  RH  095%=      5-min Rain = 0
KDR1 250950Z 15011KT 17/16 A2998 RMK A01 T01740158  RH  094%=      5-min Rain = 0
KDR1 250955Z 15012KT 18/16 A2998 RMK A01 T01750158  RH  094%=      5-min Rain = 0
KDR1 251000Z 15010KT 18/16 A2998 RMK A01 T01750158  RH  094%=      5-min Rain = 0
KDR1 251005Z 15011KT 18/16 A2998 RMK A01 T01760158  RH  094%=      5-min Rain = 0
KDR1 251010Z 15012KT 18/16 A2998 RMK A01 T01760159  RH  094%=      5-min Rain = 0
KDR1 251015Z 15011KT 18/16 A2998 RMK A01 T01770159  RH  093%=      5-min Rain = 0
KDR1 251020Z 15012KT 18/16 A2998 RMK A01 T01770159  RH  093%=      5-min Rain = 0
KDR1 251025Z 15012KT 18/16 A2998 RMK A01 T01770159  RH  094%=      5-min Rain = 0
KDR1 251030Z 14013KT 18/16 A2998 RMK A01 T01770160  RH  094%=      5-min Rain = 0
KDR1 251035Z 14012KT 18/16 A2998 RMK A01 T01770160  RH  094%=      5-min Rain = 0
KDR1 251040Z 14012KT 18/16 A2998 RMK A01 T01760159  RH  094%=      5-min Rain = 0
KDR1 251045Z 14011KT 18/16 A2998 RMK A01 T01760159  RH  094%=      5-min Rain = 0
KDR1 251050Z 14012KT 18/16 A2998 RMK A01 T01750159  RH  094%=      5-min Rain = 0
KDR1 251055Z 14012KT 18/16 A2998 RMK A01 T01750159  RH  095%=      5-min Rain = 0
KDR1 251100Z 14011KT 17/16 A2998 RMK A01 T01740158  RH  095%=      5-min Rain = 0
KDR1 251105Z 14011KT 17/16 A2998 RMK A01 T01730158  RH  095%=      5-min Rain = 0
KDR1 251110Z 14012KT 17/16 A2999 RMK A01 T01730158  RH  095%=      5-min Rain = 0
KDR1 251115Z 14012KT 17/16 A2999 RMK A01 T01740159  RH  096%=      5-min Rain = 0
KDR1 251120Z 15013KT 17/16 A2999 RMK A01 T01740160  RH  096%=      5-min Rain = 0
KDR1 251125Z 15013KT 18/16 A2999 RMK A01 T01750161  RH  096%=      5-min Rain = 0
KDR1 251130Z 15014KT 18/16 A2999 RMK A01 T01770163  RH  096%=      5-min Rain = 0
KDR1 251135Z 15014KT 18/16 A2999 RMK A01 T01780164  RH  096%=      5-min Rain = 0
KDR1 251140Z 15014G19KT 18/17 A2999 RMK A01 T01790165  RH  096%=      5-min Rain = 0
KDR1 251145Z 15015KT 18/17 A2999 RMK A01 T01800165  RH  096%=      5-min Rain = 0
KDR1 251150Z 15015KT 18/17 A30 RMK A01 T01800166  RH  096%=      5-min Rain = 0
KDR1 251155Z 15016KT 18/17 A30 RMK A01 T01810166  RH  095%=      5-min Rain = 0
KDR1 251200Z 15016KT 18/17 A30 RMK A01 T01820166  RH  095%=      5-min Rain = 0
KDR1 251205Z 15015KT 18/17 A30 RMK A01 T01820166  RH  095%=      5-min Rain = 0
KDR1 251210Z 15016KT 18/17 A30 RMK A01 T01830166  RH  094%=      5-min Rain = 0
KDR1 251215Z 15015KT 18/17 A30 RMK A01 T01820165  RH  094%=      5-min Rain = 0
KDR1 251220Z 15015G20KT 18/17 A30 RMK A01 T01820166  RH  094%=      5-min Rain = 0
KDR1 251225Z 15015G20KT 18/17 A30 RMK A01 T01830166  RH  094%=      5-min Rain = 0
KDR1 251230Z 16014KT 18/17 A3001 RMK A01 T01840167  RH  094%=      5-min Rain = 0
KDR1 251235Z 16015KT 19/17 A3001 RMK A01 T01850167  RH  094%=      5-min Rain = 0
KDR1 251240Z 16014KT 19/17 A3001 RMK A01 T01860167  RH  094%=      5-min Rain = 0
KDR1 251245Z 16014KT 19/17 A3001 RMK A01 T01870167  RH  093%=      5-min Rain = 0
KDR1 251250Z 16015KT 19/17 A3001 RMK A01 T01880168  RH  093%=      5-min Rain = 0
KDR1 251255Z 16015KT 19/17 A3001 RMK A01 T01890168  RH  092%=      5-min Rain = 0
KDR1 251300Z 16017KT 19/17 A3001 RMK A01 T01900168  RH  091%=      5-min Rain = 0
KDR1 251305Z 16016KT 19/17 A3001 RMK A01 T01910169  RH  091%=      5-min Rain = 0
KDR1 251310Z 16016KT 19/17 A3001 RMK A01 T01920168  RH  090%=      5-min Rain = 0
KDR1 251315Z 16016KT 19/17 A3001 RMK A01 T01940169  RH  089%=      5-min Rain = 0
KDR1 251320Z 16014KT 20/17 A3001 RMK A01 T01960169  RH  089%=      5-min Rain = 0
KDR1 251325Z 16016KT 20/17 A3001 RMK A01 T01970169  RH  088%=      5-min Rain = 0
KDR1 251330Z 16014KT 20/17 A3002 RMK A01 T01980169  RH  087%=      5-min Rain = 0
KDR1 251335Z 16016KT 20/17 A3002 RMK A01 T01990168  RH  087%=      5-min Rain = 0
KDR1 251340Z 16016KT 20/17 A3002 RMK A01 T02000168  RH  086%=      5-min Rain = 0
KDR1 251345Z 16016G22KT 20/17 A3002 RMK A01 T02020168  RH  085%=      5-min Rain = 0
KDR1 251350Z 17017KT 20/17 A3002 RMK A01 T02030167  RH  084%=      5-min Rain = 0
KDR1 251355Z 16016KT 21/17 A3002 RMK A01 T02050168  RH  083%=      5-min Rain = 0
KDR1 251400Z 16016KT 21/17 A3002 RMK A01 T02070168  RH  082%=      5-min Rain = 0
KDR1 251405Z 16016G21KT 21/17 A3002 RMK A01 T02090168  RH  081%=      5-min Rain = 0
KDR1 251410Z 16017G22KT 21/17 A3002 RMK A01 T02070167  RH  082%=      5-min Rain = 0
KDR1 251415Z 16017KT 21/17 A3002 RMK A01 T02100168  RH  081%=      5-min Rain = 0
KDR1 251420Z 16017KT 21/17 A3002 RMK A01 T02120168  RH  080%=      5-min Rain = 0
KDR1 251425Z 16017KT 21/17 A3002 RMK A01 T02130168  RH  079%=      5-min Rain = 0
KDR1 251430Z 16017KT 21/17 A3002 RMK A01 T02130169  RH  079%=      5-min Rain = 0
KDR1 251435Z 16016G21KT 22/17 A3002 RMK A01 T02180170  RH  078%=      5-min Rain = 0
KDR1 251440Z 16016G21KT 22/17 A3002 RMK A01 T02180168  RH  077%=      5-min Rain = 0
KDR1 251445Z 15016G21KT 22/17 A3002 RMK A01 T02200169  RH  076%=      5-min Rain = 0
KDR1 251450Z 15017KT 22/17 A3002 RMK A01 T02220169  RH  075%=      5-min Rain = 0
KDR1 251455Z 16016KT 22/17 A3003 RMK A01 T02220169  RH  075%=      5-min Rain = 0
KDR1 251500Z 16017G22KT 23/17 A3003 RMK A01 T02270169  RH  074%=      5-min Rain = 0
KDR1 251505Z 16018KT 23/17 A3003 RMK A01 T02270169  RH  073%=      5-min Rain = 0
KDR1 251510Z 16016G21KT 23/17 A3003 RMK A01 T02290168  RH  072%=      5-min Rain = 0
KDR1 251515Z 16015KT 23/17 A3003 RMK A01 T02280167  RH  072%=      5-min Rain = 0
KDR1 251520Z 16017KT 23/17 A3003 RMK A01 T02290168  RH  072%=      5-min Rain = 0
KDR1 251525Z 16017KT 23/17 A3003 RMK A01 T02320167  RH  070%=      5-min Rain = 0
KDR1 251530Z 16017KT 24/17 A3003 RMK A01 T02370166  RH  068%=      5-min Rain = 0
KDR1 251535Z 16017KT 23/17 A3003 RMK A01 T02340166  RH  069%=      5-min Rain = 0
KDR1 251540Z 17017KT 24/17 A3003 RMK A01 T02360165  RH  068%=      5-min Rain = 0
KDR1 251545Z 17018KT 24/16 A3003 RMK A01 T02360163  RH  067%=      5-min Rain = 0
KDR1 251550Z 17018KT 24/17 A3003 RMK A01 T02400166  RH  067%=      5-min Rain = 0
KDR1 251555Z 17017KT 24/17 A3003 RMK A01 T02380165  RH  067%=      5-min Rain = 0
KDR1 251600Z 17016G21KT 24/17 A3003 RMK A01 T02370166  RH  067%=      5-min Rain = 0
KDR1 251605Z 17017KT 24/17 A3003 RMK A01 T02360166  RH  068%=      5-min Rain = 0
KDR1 251610Z 17016G21KT 24/16 A3003 RMK A01 T02360164  RH  067%=      5-min Rain = 0
KDR1 251615Z 17016G22KT 24/17 A3003 RMK A01 T02390166  RH  067%=      5-min Rain = 0
KDR1 251620Z 17016G21KT 25/17 A3003 RMK A01 T02510167  RH  063%=      5-min Rain = 0
KDR1 251625Z 17017KT 25/16 A3002 RMK A01 T02480163  RH  062%=      5-min Rain = 0
KDR1 251630Z 17016KT 26/16 A3002 RMK A01 T02550164  RH  060%=      5-min Rain = 0
KDR1 251635Z 17014G20KT 25/16 A3002 RMK A01 T02530163  RH  060%=      5-min Rain = 0
KDR1 251640Z 16016G21KT 25/16 A3002 RMK A01 T02540160  RH  059%=      5-min Rain = 0
KDR1 251645Z 17017G22KT 25/16 A3002 RMK A01 T02480163  RH  062%=      5-min Rain = 0
KDR1 251650Z 16017G22KT 26/17 A3002 RMK A01 T02580165  RH  059%=      5-min Rain = 0
KDR1 251655Z 17015KT 27/17 A3002 RMK A01 T02680165  RH  056%=      5-min Rain = 0
KDR1 251700Z 16015G20KT 26/16 A3002 RMK A01 T02620163  RH  057%=      5-min Rain = 0
KDR1 251705Z 15014G19KT 26/16 A3002 RMK A01 T02600160  RH  057%=      5-min Rain = 0
KDR1 251710Z 15014G20KT 26/16 A3001 RMK A01 T02620159  RH  056%=      5-min Rain = 0
KDR1 251715Z 16015KT 26/16 A30 RMK A01 T02620160  RH  056%=      5-min Rain = 0
KDR1 251720Z 16014KT 26/16 A2999 RMK A01 T02580162  RH  058%=      5-min Rain = 0
KDR1 251725Z 18013KT 26/16 A2999 RMK A01 T02580162  RH  058%=      5-min Rain = 0
KDR1 251730Z 17014G20KT 27/16 A30 RMK A01 T02710159  RH  053%=      5-min Rain = 0
KDR1 251735Z 17014G19KT 26/16 A2999 RMK A01 T02630156  RH  054%=      5-min Rain = 0
KDR1 251740Z 16012KT 26/15 A2998 RMK A01 T02560153  RH  056%=      5-min Rain = 0
KDR1 251745Z 15014G20KT 25/16 A2998 RMK A01 T02510156  RH  058%=      5-min Rain = 0
KDR1 251750Z 14017G23KT 24/16 A2998 RMK A01 T02440163  RH  064%=      5-min Rain = 0
KDR1 251755Z 14017KT 22/17 A2998 RMK A01 T02240173  RH  077%=      5-min Rain = 0.02
KDR1 251800Z 15015G20KT 21/18 A30 RMK A01 T02060178  RH  088%=      5-min Rain = 0.09
KDR1 251805Z 15014KT 20/18 A30 RMK A01 T02010177  RH  091%=      5-min Rain = 0.08
KDR1 251810Z 16014G20KT 20/18 A3001 RMK A01 T02000178  RH  092%=      5-min Rain = 0.16
KDR1 251815Z 14023G48KT 18/16 A30 RMK A01 T01770163  RH  096%=      5-min Rain = 0.2
KDR1 251820Z 13015G25KT 18/17 A2998 RMK A01 T01820174  RH  100%=      5-min Rain = 0.01
KDR1 251825Z 14022G28KT 19/18 A2998 RMK A01 T01900181  RH  100%=      5-min Rain = 0.01
KDR1 251830Z 16017G23KT 18/17 A2998 RMK A01 T01760169  RH  100%=      5-min Rain = 0.01
KDR1 251835Z 16013G18KT 17/17 A2998 RMK A01 T01720165  RH  100%=      5-min Rain = 0.01
KDR1 251840Z 17012G18KT 18/17 A2999 RMK A01 T01780170  RH  100%=      5-min Rain = 0.01
KDR1 251845Z 17015KT 19/18 A2999 RMK A01 T01860177  RH  100%=      5-min Rain = 0
KDR1 251850Z 17015G20KT 19/18 A2999 RMK A01 T01900182  RH  100%=      5-min Rain = 0.01
KDR1 251855Z 17017KT 19/19 A2999 RMK A01 T01940185  RH  100%=      5-min Rain = 0.01
KDR1 251900Z 17016KT 21/20 A2999 RMK A01 T02070197  RH  100%=      5-min Rain = 0
KDR1 251905Z 16017KT 21/21 A2998 RMK A01 T02140205  RH  100%=      5-min Rain = 0
KDR1 251910Z 16017KT 21/20 A2998 RMK A01 T02140204  RH  100%=      5-min Rain = 0
KDR1 251915Z 15015G20KT 22/21 A2998 RMK A01 T02190209  RH  100%=      5-min Rain = 0
KDR1 251920Z 15014KT 22/21 A2998 RMK A01 T02200210  RH  100%=      5-min Rain = 0
KDR1 251925Z 15013KT 23/22 A2998 RMK A01 T02250215  RH  100%=      5-min Rain = 0
KDR1 251930Z 15014KT 23/22 A2997 RMK A01 T02260215  RH  100%=      5-min Rain = 0
KDR1 251935Z 16013KT 24/22 A2997 RMK A01 T02350224  RH  100%=      5-min Rain = 0
KDR1 251940Z 16012KT 23/22 A2997 RMK A01 T02330222  RH  100%=      5-min Rain = 0
KDR1 251945Z 15012KT 23/22 A2996 RMK A01 T02270217  RH  100%=      5-min Rain = 0
KDR1 251950Z 15011KT 22/21 A2997 RMK A01 T02230213  RH  100%=      5-min Rain = 0
KDR1 251955Z 16010KT 22/21 A2997 RMK A01 T02230213  RH  100%=      5-min Rain = 0
KDR1 252000Z 16009KT 24/23 A2996 RMK A01 T02400229  RH  100%=      5-min Rain = 0
KDR1 252005Z 17009KT 25/24 A2996 RMK A01 T02480237  RH  100%=      5-min Rain = 0
KDR1 252010Z 16009KT 25/24 A2996 RMK A01 T02530242  RH  100%=      5-min Rain = 0
KDR1 252015Z 15009KT 25/24 A2995 RMK A01 T02540243  RH  100%=      5-min Rain = 0
KDR1 252020Z 16008G13KT 26/25 A2995 RMK A01 T02570245  RH  100%=      5-min Rain = 0
KDR1 252025Z 15009KT 26/25 A2995 RMK A01 T02610247  RH  099%=      5-min Rain = 0
KDR1 252030Z 18007KT 26/23 A2995 RMK A01 T02610234  RH  091%=      5-min Rain = 0
KDR1 252035Z 16008KT 27/23 A2994 RMK A01 T02670230  RH  086%=      5-min Rain = 0
KDR1 252040Z 16008KT 27/23 A2994 RMK A01 T02710229  RH  083%=      5-min Rain = 0
KDR1 252045Z 15008KT 27/23 A2994 RMK A01 T02720225  RH  080%=      5-min Rain = 0
KDR1 252050Z 15005KT 27/22 A2994 RMK A01 T02740221  RH  078%=      5-min Rain = 0
KDR1 252055Z 16007KT 28/22 A2994 RMK A01 T02770219  RH  075%=      5-min Rain = 0
KDR1 252100Z 17007KT 28/22 A2994 RMK A01 T02770215  RH  073%=      5-min Rain = 0
KDR1 252105Z 15007G13KT 28/21 A2994 RMK A01 T02830214  RH  070%=      5-min Rain = 0
KDR1 252110Z 17008KT 29/21 A2994 RMK A01 T02870205  RH  065%=      5-min Rain = 0
KDR1 252115Z 20010KT 29/20 A2993 RMK A01 T02890198  RH  061%=      5-min Rain = 0.01
KDR1 252120Z 19010G16KT 29/19 A2993 RMK A01 T02910189  RH  058%=      5-min Rain = 0
KDR1 252125Z 20011G16KT 29/17 A2993 RMK A01 T02930174  RH  051%=      5-min Rain = 0
KDR1 252130Z 21009KT 29/17 A2992 RMK A01 T02940167  RH  049%=      5-min Rain = 0
KDR1 252135Z 20006KT 30/15 A2992 RMK A01 T02980152  RH  043%=      5-min Rain = 0
KDR1 252140Z 20014KT 30/15 A2992 RMK A01 T02990151  RH  043%=      5-min Rain = 0
KDR1 252145Z 21013G19KT 30/14 A2992 RMK A01 T02950141  RH  041%=      5-min Rain = 0
KDR1 252150Z 20014G20KT 30/13 A2991 RMK A01 T02960131  RH  038%=      5-min Rain = 0
KDR1 252155Z 21017KT 29/12 A2991 RMK A01 T02920121  RH  036%=      5-min Rain = 0
KDR1 252200Z 20015G22KT 29/11 A2991 RMK A01 T02930114  RH  034%=      5-min Rain = 0
KDR1 252205Z 21018G25KT 29/11 A2991 RMK A01 T02920112  RH  034%=      5-min Rain = 0
KDR1 252210Z 20012G19KT 30/11 A2991 RMK A01 T02950106  RH  032%=      5-min Rain = 0
KDR1 252215Z 21014G20KT 30/11 A2991 RMK A01 T02970109  RH  032%=      5-min Rain = 0
KDR1 252220Z 21016G22KT 29/10 A2991 RMK A01 T02930099  RH  031%=      5-min Rain = 0
KDR1 252225Z 21017G25KT 29/09 A2991 RMK A01 T02930091  RH  029%=      5-min Rain = 0
KDR1 252230Z 20017G24KT 29/09 A2991 RMK A01 T02940088  RH  029%=      5-min Rain = 0
KDR1 252235Z 20016G21KT 29/08 A2991 RMK A01 T02930080  RH  027%=      5-min Rain = 0
KDR1 252240Z 20020G25KT 29/07 A2991 RMK A01 T02940066  RH  024%=      5-min Rain = 0
KDR1 252245Z 21019KT 29/07 A299 RMK A01 T02910070  RH  025%=      5-min Rain = 0
KDR1 252250Z 21017G22KT 29/06 A299 RMK A01 T02920062  RH  024%=      5-min Rain = 0
KDR1 252255Z 22015KT 29/07 A299 RMK A01 T02870068  RH  026%=      5-min Rain = 0
KDR1 252300Z 22017G22KT 29/06 A2989 RMK A01 T02880057  RH  024%=      5-min Rain = 0
KDR1 252305Z 21019G25KT 29/06 A299 RMK A01 T02910055  RH  023%=      5-min Rain = 0
KDR1 252310Z 21017G23KT 29/06 A2989 RMK A01 T02900060  RH  024%=      5-min Rain = 0
KDR1 252315Z 21017G24KT 29/07 A2989 RMK A01 T02900069  RH  026%=      5-min Rain = 0
KDR1 252320Z 21015KT 29/07 A2989 RMK A01 T02890069  RH  026%=      5-min Rain = 0
KDR1 252325Z 22015G20KT 29/06 A2989 RMK A01 T02850062  RH  025%=      5-min Rain = 0
KDR1 252330Z 21014G20KT 29/07 A299 RMK A01 T02870067  RH  026%=      5-min Rain = 0
KDR1 252335Z 21015KT 29/07 A299 RMK A01 T02910067  RH  025%=      5-min Rain = 0
KDR1 252340Z 21018G23KT 29/06 A299 RMK A01 T02880060  RH  024%=      5-min Rain = 0
KDR1 252345Z 21016G21KT 29/06 A2989 RMK A01 T02880055  RH  023%=      5-min Rain = 0
KDR1 252350Z 20019G24KT 28/09 A299 RMK A01 T02820091  RH  032%=      5-min Rain = 0
KDR1 252355Z 17019G27KT 28/11 A299 RMK A01 T02750109  RH  037%=      5-min Rain = 0
KDR1 260000Z 16021G26KT 28/11 A299 RMK A01 T02770106  RH  036%=      5-min Rain = 0
KDR1 260005Z 16021KT 28/11 A2991 RMK A01 T02770105  RH  035%=      5-min Rain = 0
KDR1 260010Z 15022G28KT 27/11 A2991 RMK A01 T02720111  RH  038%=      5-min Rain = 0
KDR1 260015Z 16023KT 27/12 A2991 RMK A01 T02660118  RH  041%=      5-min Rain = 0
KDR1 260020Z 16022G29KT 27/13 A2991 RMK A01 T02650129  RH  045%=      5-min Rain = 0
KDR1 260025Z 16024G33KT 26/14 A2991 RMK A01 T02640143  RH  049%=      5-min Rain = 0
KDR1 260030Z 16023G31KT 26/16 A2991 RMK A01 T02620156  RH  054%=      5-min Rain = 0
KDR1 260035Z 16025G31KT 26/16 A2991 RMK A01 T02580161  RH  058%=      5-min Rain = 0
KDR1 260040Z 16024G31KT 26/17 A2991 RMK A01 T02580167  RH  060%=      5-min Rain = 0
KDR1 260045Z 16023KT 26/17 A2991 RMK A01 T02570168  RH  061%=      5-min Rain = 0
KDR1 260050Z 16024G31KT 26/17 A2991 RMK A01 T02550169  RH  062%=      5-min Rain = 0
KDR1 260055Z 15023G28KT 26/17 A2991 RMK A01 T02550170  RH  062%=      5-min Rain = 0
KDR1 260100Z 15023G29KT 25/17 A2992 RMK A01 T02540169  RH  062%=      5-min Rain = 0
KDR1 260105Z 15023G28KT 25/17 A2992 RMK A01 T02530165  RH  061%=      5-min Rain = 0
KDR1 260110Z 15022G27KT 25/16 A2992 RMK A01 T02530164  RH  061%=      5-min Rain = 0
KDR1 260115Z 15020G25KT 25/16 A2992 RMK A01 T02520164  RH  061%=      5-min Rain = 0
KDR1 260120Z 16019G26KT 25/17 A2992 RMK A01 T02500165  RH  062%=      5-min Rain = 0
KDR1 260125Z 15017G22KT 25/17 A2992 RMK A01 T02480166  RH  063%=      5-min Rain = 0
KDR1 260130Z 16019KT 25/16 A2993 RMK A01 T02470164  RH  063%=      5-min Rain = 0
KDR1 260135Z 16017KT 25/16 A2993 RMK A01 T02460163  RH  063%=      5-min Rain = 0
KDR1 260140Z 16017KT 25/16 A2993 RMK A01 T02450162  RH  063%=      5-min Rain = 0
KDR1 260145Z 16017G22KT 24/16 A2993 RMK A01 T02430160  RH  063%=      5-min Rain = 0
KDR1 260150Z 16016G22KT 24/16 A2993 RMK A01 T02400161  RH  064%=      5-min Rain = 0
KDR1 260155Z 16016G21KT 24/16 A2994 RMK A01 T02390162  RH  065%=      5-min Rain = 0
KDR1 260200Z 16015G20KT 24/16 A2994 RMK A01 T02360163  RH  066%=      5-min Rain = 0
KDR1 260205Z 16016KT 24/16 A2994 RMK A01 T02350163  RH  067%=      5-min Rain = 0
KDR1 260210Z 16016KT 23/16 A2994 RMK A01 T02340163  RH  068%=      5-min Rain = 0
KDR1 260215Z 16016KT 23/16 A2995 RMK A01 T02320164  RH  069%=      5-min Rain = 0
KDR1 260220Z 16016KT 23/16 A2995 RMK A01 T02300164  RH  070%=      5-min Rain = 0
KDR1 260225Z 16016KT 23/16 A2995 RMK A01 T02300163  RH  069%=      5-min Rain = 0
KDR1 260230Z 16014KT 23/16 A2995 RMK A01 T02290163  RH  070%=      5-min Rain = 0
KDR1 260235Z 15014G19KT 23/16 A2995 RMK A01 T02260163  RH  071%=      5-min Rain = 0
KDR1 260240Z 15013KT 22/16 A2996 RMK A01 T02240164  RH  072%=      5-min Rain = 0
KDR1 260245Z 16015G23KT 22/16 A2996 RMK A01 T02230164  RH  073%=      5-min Rain = 0
KDR1 260250Z 15017KT 22/17 A2996 RMK A01 T02220165  RH  074%=      5-min Rain = 0
KDR1 260255Z 15016KT 22/17 A2996 RMK A01 T02210166  RH  075%=      5-min Rain = 0
KDR1 260300Z 16015KT 22/17 A2997 RMK A01 T02190166  RH  076%=      5-min Rain = 0
KDR1 260305Z 16019G25KT 22/17 A2997 RMK A01 T02190166  RH  076%=      5-min Rain = 0
KDR1 260310Z 16020KT 22/17 A2997 RMK A01 T02190165  RH  075%=      5-min Rain = 0
KDR1 260315Z 16018KT 22/17 A2997 RMK A01 T02180165  RH  075%=      5-min Rain = 0
KDR1 260320Z 16017G23KT 22/16 A2998 RMK A01 T02150164  RH  076%=      5-min Rain = 0
KDR1 260325Z 16016G21KT 21/16 A2998 RMK A01 T02130163  RH  076%=      5-min Rain = 0
KDR1 260330Z 16017KT 21/16 A2998 RMK A01 T02120162  RH  077%=      5-min Rain = 0
KDR1 260335Z 16016G22KT 21/16 A2998 RMK A01 T02110161  RH  077%=      5-min Rain = 0
KDR1 260340Z 17016KT 21/16 A2998 RMK A01 T02090160  RH  077%=      5-min Rain = 0
KDR1 260345Z 16015KT 21/16 A2999 RMK A01 T02070159  RH  077%=      5-min Rain = 0
KDR1 260350Z 16017G23KT 21/16 A2999 RMK A01 T02060159  RH  078%=      5-min Rain = 0
KDR1 260355Z 17016G21KT 21/16 A2999 RMK A01 T02050159  RH  078%=      5-min Rain = 0
KDR1 260400Z 16017KT 20/16 A2999 RMK A01 T02040160  RH  079%=      5-min Rain = 0
KDR1 260405Z 16015KT 20/16 A2999 RMK A01 T02020160  RH  080%=      5-min Rain = 0
KDR1 260410Z 16017KT 20/16 A2999 RMK A01 T02010161  RH  081%=      5-min Rain = 0
KDR1 260415Z 17015G20KT 20/16 A2999 RMK A01 T02000161  RH  082%=      5-min Rain = 0
KDR1 260420Z 17015G20KT 20/16 A2999 RMK A01 T01990162  RH  083%=      5-min Rain = 0
KDR1 260425Z 17016KT 20/16 A30 RMK A01 T01990162  RH  083%=      5-min Rain = 0
KDR1 260430Z 16016G21KT 20/16 A30 RMK A01 T01980162  RH  084%=      5-min Rain = 0
KDR1 260435Z 17015G20KT 20/16 A30 RMK A01 T01960162  RH  084%=      5-min Rain = 0
KDR1 260440Z 17016KT 20/16 A30 RMK A01 T01960162  RH  085%=      5-min Rain = 0
KDR1 260445Z 17015KT 20/16 A30 RMK A01 T01950162  RH  085%=      5-min Rain = 0
KDR1 260450Z 17015G21KT 19/16 A30 RMK A01 T01930162  RH  086%=      5-min Rain = 0
KDR1 260455Z 17016KT 19/16 A30 RMK A01 T01940162  RH  085%=      5-min Rain = 0

Page generated in 0.0289 seconds.